createdAt,value
2018-09-14T00:01:46.110Z,91.10
2018-09-14T00:04:14.695Z,91.10
2018-09-14T00:06:43.300Z,91.10
2018-09-14T00:09:13.025Z,91.10
2018-09-14T00:11:42.036Z,91.10
2018-09-14T00:14:10.640Z,91.00
2018-09-14T00:16:39.290Z,91.10
2018-09-14T00:19:08.016Z,91.10
2018-09-14T00:21:36.778Z,91.10
2018-09-14T00:24:05.455Z,91.20
2018-09-14T00:26:34.066Z,91.20
2018-09-14T00:29:02.735Z,91.20
2018-09-14T00:31:31.308Z,91.10
2018-09-14T00:34:00.259Z,91.20
2018-09-14T00:36:28.893Z,91.10
2018-09-14T00:38:57.534Z,91.20
2018-09-14T00:41:26.183Z,91.20
2018-09-14T00:43:54.799Z,91.20
2018-09-14T00:46:23.511Z,91.20
2018-09-14T00:48:52.119Z,91.30
2018-09-14T00:51:20.807Z,91.20
2018-09-14T00:53:49.415Z,91.10
2018-09-14T00:56:18.032Z,91.20
2018-09-14T00:58:46.667Z,91.30
2018-09-14T01:01:15.299Z,91.30
2018-09-14T01:03:43.931Z,91.20
2018-09-14T01:06:12.556Z,91.30
2018-09-14T01:08:41.172Z,91.20
2018-09-14T01:11:09.783Z,91.20
2018-09-14T01:13:38.407Z,91.20
2018-09-14T01:16:07.076Z,91.20
2018-09-14T01:18:35.676Z,91.60
2018-09-14T01:21:04.365Z,91.20
2018-09-14T01:23:32.988Z,91.10
2018-09-14T01:26:01.657Z,91.30
2018-09-14T01:28:30.288Z,91.30
2018-09-14T01:30:58.970Z,91.30
2018-09-14T01:33:27.602Z,91.20
2018-09-14T01:36:01.476Z,91.20
2018-09-14T01:38:30.084Z,91.20
2018-09-14T01:40:58.762Z,91.30
2018-09-14T01:43:27.375Z,91.40
2018-09-14T01:45:56.027Z,91.30
2018-09-14T01:48:24.647Z,91.30
2018-09-14T01:50:53.285Z,91.40
2018-09-14T01:53:21.935Z,91.40
2018-09-14T01:55:50.578Z,91.40
2018-09-14T01:58:19.305Z,91.40
2018-09-14T02:00:47.912Z,91.30
2018-09-14T02:03:16.689Z,91.40
2018-09-14T02:05:45.348Z,91.40
2018-09-14T02:08:14.018Z,91.40
2018-09-14T02:10:42.627Z,91.40
2018-09-14T02:13:11.220Z,91.40
2018-09-14T02:15:39.907Z,91.40
2018-09-14T02:18:08.550Z,91.80
2018-09-14T02:20:37.178Z,91.50
2018-09-14T02:23:05.888Z,91.40
2018-09-14T02:25:34.608Z,91.30
2018-09-14T02:28:03.244Z,91.30
2018-09-14T02:30:32.134Z,91.40
2018-09-14T02:33:00.822Z,91.40
2018-09-14T02:35:29.407Z,91.40
2018-09-14T02:37:58.068Z,91.40
2018-09-14T02:40:26.659Z,91.40
2018-09-14T02:42:55.354Z,91.30
2018-09-14T02:45:24.036Z,91.40
2018-09-14T02:47:52.692Z,91.30
2018-09-14T02:50:21.411Z,91.40
2018-09-14T02:52:50.031Z,91.50
2018-09-14T02:55:18.962Z,91.60
2018-09-14T02:57:47.530Z,91.80
2018-09-14T03:00:16.181Z,91.50
2018-09-14T03:02:44.823Z,91.50
2018-09-14T03:05:13.471Z,91.50
2018-09-14T03:07:42.103Z,91.50
2018-09-14T03:10:10.716Z,91.50
2018-09-14T03:12:39.299Z,91.50
2018-09-14T03:15:07.915Z,91.80
2018-09-14T03:17:36.880Z,91.50
2018-09-14T03:20:05.575Z,91.40
2018-09-14T03:22:34.343Z,91.30
2018-09-14T03:25:03.008Z,91.40
2018-09-14T03:27:31.680Z,91.30
2018-09-14T03:30:00.311Z,91.30
2018-09-14T03:32:29.173Z,91.80
2018-09-14T03:34:57.824Z,91.50
2018-09-14T03:37:26.451Z,91.40
2018-09-14T03:39:55.097Z,91.40
2018-09-14T03:42:23.832Z,91.40
2018-09-14T03:44:52.512Z,91.80
2018-09-14T03:47:21.092Z,91.50
2018-09-14T03:49:49.711Z,91.50
2018-09-14T03:52:18.286Z,91.60
2018-09-14T03:54:46.961Z,91.60
2018-09-14T03:57:15.638Z,91.50
2018-09-14T03:59:44.191Z,91.50
2018-09-14T04:02:12.875Z,91.40
2018-09-14T04:04:41.520Z,91.50
2018-09-14T04:07:10.175Z,91.40
2018-09-14T04:09:38.832Z,91.40
2018-09-14T04:12:07.451Z,91.30
2018-09-14T04:14:36.100Z,91.30
2018-09-14T04:17:04.748Z,91.30
2018-09-14T04:19:33.422Z,91.30
2018-09-14T04:22:02.079Z,91.30
2018-09-14T04:24:30.787Z,91.30
2018-09-14T04:26:59.356Z,91.30
2018-09-14T04:29:27.985Z,91.30
2018-09-14T04:31:56.647Z,91.20
2018-09-14T04:34:25.242Z,91.30
2018-09-14T04:36:53.879Z,91.40
2018-09-14T04:39:22.436Z,91.40
2018-09-14T04:41:51.122Z,91.20
2018-09-14T04:44:19.724Z,91.30
2018-09-14T04:46:48.367Z,91.40
2018-09-14T04:49:16.947Z,91.40
2018-09-14T04:51:45.587Z,91.40
2018-09-14T04:54:14.171Z,91.50
2018-09-14T04:56:42.863Z,91.50
2018-09-14T04:59:11.498Z,91.50
2018-09-14T05:01:40.093Z,91.50
2018-09-14T05:04:08.743Z,91.50
2018-09-14T05:06:37.368Z,91.50
2018-09-14T05:09:07.473Z,91.50
2018-09-14T05:11:36.140Z,91.50
2018-09-14T05:14:04.832Z,91.50
2018-09-14T05:16:33.589Z,91.60
2018-09-14T05:19:02.280Z,91.60
2018-09-14T05:21:31.174Z,91.80
2018-09-14T05:23:59.823Z,91.60
2018-09-14T05:26:28.435Z,91.70
2018-09-14T05:28:57.117Z,91.70
2018-09-14T05:31:25.726Z,91.70
2018-09-14T05:33:54.345Z,91.60
2018-09-14T05:36:22.953Z,91.60
2018-09-14T05:38:51.595Z,91.60
2018-09-14T05:41:20.187Z,91.50
2018-09-14T05:43:48.843Z,91.60
2018-09-14T05:46:17.482Z,91.40
2018-09-14T05:48:46.302Z,91.30
2018-09-14T05:51:14.926Z,91.30
2018-09-14T05:53:43.535Z,91.20
2018-09-14T05:56:12.434Z,91.20
2018-09-14T05:58:41.059Z,91.40
2018-09-14T06:01:09.676Z,91.60
2018-09-14T06:03:38.328Z,91.60
2018-09-14T06:06:07.063Z,92.10
2018-09-14T06:08:35.643Z,91.90
2018-09-14T06:11:04.335Z,92.00
2018-09-14T06:13:32.904Z,92.30
2018-09-14T06:16:01.531Z,92.10
2018-09-14T06:18:30.149Z,92.20
2018-09-14T06:20:58.839Z,92.30
2018-09-14T06:23:27.458Z,92.30
2018-09-14T06:25:56.058Z,92.70
2018-09-14T06:28:24.691Z,92.90
2018-09-14T06:30:53.299Z,92.90
2018-09-14T06:33:22.027Z,92.90
2018-09-14T06:35:50.638Z,93.00
2018-09-14T06:38:19.311Z,93.10
2018-09-14T06:40:47.994Z,92.90
2018-09-14T06:43:16.614Z,92.60
2018-09-14T06:45:45.227Z,92.60
2018-09-14T06:48:13.859Z,92.70
2018-09-14T06:50:42.527Z,92.60
2018-09-14T06:53:11.156Z,92.40
2018-09-14T06:55:39.756Z,92.50
2018-09-14T06:58:08.408Z,92.30
2018-09-14T07:00:37.037Z,92.20
2018-09-14T07:03:05.694Z,92.10
2018-09-14T07:05:34.360Z,91.60
2018-09-14T07:08:03.023Z,91.30
2018-09-14T07:10:31.639Z,91.20
2018-09-14T07:13:00.276Z,91.10
2018-09-14T07:15:28.923Z,91.10
2018-09-14T07:17:57.556Z,90.70
2018-09-14T07:20:26.168Z,90.20
2018-09-14T07:22:54.852Z,90.10
2018-09-14T07:25:23.491Z,90.30
2018-09-14T07:27:52.107Z,90.30
2018-09-14T07:30:20.755Z,89.80
2018-09-14T07:32:49.437Z,89.60
2018-09-14T07:35:18.132Z,88.80
2018-09-14T07:37:46.771Z,88.80
2018-09-14T07:40:15.491Z,88.70
2018-09-14T07:42:44.133Z,88.40
2018-09-14T07:45:12.835Z,88.40
2018-09-14T07:47:41.451Z,88.40
2018-09-14T07:50:10.084Z,88.90
2018-09-14T07:52:39.035Z,88.10
2018-09-14T07:55:07.631Z,87.20
2018-09-14T07:57:36.227Z,86.10
2018-09-14T08:00:04.940Z,85.70
2018-09-14T08:02:33.579Z,84.60
2018-09-14T08:05:02.232Z,84.10
2018-09-14T08:07:30.888Z,84.40
2018-09-14T08:09:59.530Z,83.70
2018-09-14T08:12:28.311Z,83.90
2018-09-14T08:14:57.067Z,82.40
2018-09-14T08:17:25.720Z,82.00
2018-09-14T08:19:54.402Z,80.40
2018-09-14T08:22:23.055Z,80.40
2018-09-14T08:24:51.656Z,81.90
2018-09-14T08:27:20.441Z,80.50
2018-09-14T08:29:49.167Z,80.60
2018-09-14T08:32:17.791Z,80.10
2018-09-14T08:34:46.392Z,80.70
2018-09-14T08:37:15.008Z,80.20
2018-09-14T08:39:43.959Z,80.60
2018-09-14T08:42:12.551Z,78.60
2018-09-14T08:44:41.155Z,77.90
2018-09-14T08:47:09.794Z,77.10
2018-09-14T08:49:38.453Z,74.60
2018-09-14T08:52:07.151Z,73.10
2018-09-14T08:54:35.795Z,74.00
2018-09-14T08:57:04.479Z,75.20
2018-09-14T08:59:33.104Z,73.80
2018-09-14T09:02:01.736Z,73.20
2018-09-14T09:04:30.387Z,73.50
2018-09-14T09:06:59.024Z,72.80
2018-09-14T09:09:27.698Z,73.20
2018-09-14T09:11:56.328Z,71.00
2018-09-14T09:14:24.953Z,71.20
2018-09-14T09:16:53.581Z,72.60
2018-09-14T09:19:22.256Z,69.80
2018-09-14T09:21:51.019Z,70.10
2018-09-14T09:24:19.681Z,69.30
2018-09-14T09:26:48.363Z,67.70
2018-09-14T09:29:17.036Z,64.80
2018-09-14T09:31:45.770Z,66.10
2018-09-14T09:34:14.481Z,66.60
2018-09-14T09:36:43.125Z,67.20
2018-09-14T09:39:12.834Z,64.70
2018-09-14T09:41:42.397Z,64.20
2018-09-14T09:44:11.308Z,63.10
2018-09-14T09:46:39.948Z,65.20
2018-09-14T09:49:09.037Z,64.50
2018-09-14T09:51:37.636Z,63.10
2018-09-14T09:54:06.303Z,62.20
2018-09-14T09:56:34.943Z,62.60
2018-09-14T09:59:03.621Z,61.00
2018-09-14T10:01:37.648Z,61.80
2018-09-14T10:04:11.806Z,60.30
2018-09-14T10:06:40.517Z,62.30
2018-09-14T10:09:09.716Z,59.70
2018-09-14T10:11:38.339Z,58.50
2018-09-14T10:14:07.078Z,59.50
2018-09-14T10:16:35.661Z,59.60
2018-09-14T10:19:04.315Z,56.10
2018-09-14T10:21:32.935Z,57.50
2018-09-14T10:24:01.543Z,57.60
2018-09-14T10:26:30.176Z,58.10
2018-09-14T10:28:58.896Z,59.40
2018-09-14T10:31:27.560Z,56.30
2018-09-14T10:33:56.238Z,57.30
2018-09-14T10:36:24.861Z,58.40
2018-09-14T10:38:53.544Z,58.20
2018-09-14T10:41:22.175Z,55.00
2018-09-14T10:43:50.843Z,56.60
2018-09-14T10:46:19.535Z,55.30
2018-09-14T10:48:48.229Z,57.00
2018-09-14T10:51:16.872Z,58.40
2018-09-14T10:53:45.516Z,57.70
2018-09-14T10:56:14.164Z,58.00
2018-09-14T10:58:43.371Z,57.00
2018-09-14T11:01:14.895Z,54.40
2018-09-14T11:03:43.612Z,55.20
2018-09-14T11:06:13.104Z,54.40
2018-09-14T11:08:41.719Z,56.80
2018-09-14T11:11:10.325Z,57.70
2018-09-14T11:13:38.971Z,55.70
2018-09-14T11:16:07.651Z,53.20
2018-09-14T11:18:36.311Z,54.80
2018-09-14T11:21:04.919Z,51.40
2018-09-14T11:23:33.606Z,53.00
2018-09-14T11:26:02.217Z,53.10
2018-09-14T11:28:30.826Z,54.10
2018-09-14T11:30:59.550Z,51.80
2018-09-14T11:33:28.244Z,52.80
2018-09-14T11:35:56.879Z,54.20
2018-09-14T11:38:25.536Z,50.70
2018-09-14T11:40:54.127Z,51.10
2018-09-14T11:43:22.768Z,51.10
2018-09-14T11:45:51.458Z,51.10
2018-09-14T11:48:20.104Z,51.60
2018-09-14T11:50:48.800Z,53.10
2018-09-14T11:53:17.423Z,48.90
2018-09-14T11:55:46.023Z,49.80
2018-09-14T11:58:14.687Z,50.30
2018-09-14T12:00:43.339Z,50.80
2018-09-14T12:03:11.995Z,52.80
2018-09-14T12:05:40.642Z,52.40
2018-09-14T12:08:09.674Z,50.20
2018-09-14T12:10:38.746Z,50.30
2018-09-14T12:13:07.347Z,51.40
2018-09-14T12:15:36.011Z,49.20
2018-09-14T12:18:04.631Z,51.40
2018-09-14T12:20:33.298Z,50.40
2018-09-14T12:23:02.270Z,51.90
2018-09-14T12:25:30.843Z,50.20
2018-09-14T12:27:59.464Z,49.30
2018-09-14T12:30:28.131Z,49.80
2018-09-14T12:32:56.740Z,47.60
2018-09-14T12:35:25.310Z,47.00
2018-09-14T12:37:53.903Z,48.50
2018-09-14T12:40:22.779Z,49.50
2018-09-14T12:42:51.475Z,47.90
2018-09-14T12:45:20.120Z,48.50
2018-09-14T12:47:48.759Z,48.40
2018-09-14T12:50:17.386Z,48.30
2018-09-14T12:52:46.020Z,47.70
2018-09-14T12:55:14.697Z,46.60
2018-09-14T12:57:43.355Z,47.10
2018-09-14T13:00:12.423Z,46.80
2018-09-14T13:02:41.018Z,48.70
2018-09-14T13:05:09.726Z,48.60
2018-09-14T13:07:38.359Z,47.30
2018-09-14T13:10:07.363Z,48.20
2018-09-14T13:12:36.309Z,47.80
2018-09-14T13:15:05.072Z,49.30
2018-09-14T13:17:33.703Z,47.90
2018-09-14T13:20:02.360Z,49.00
2018-09-14T13:22:30.999Z,48.30
2018-09-14T13:24:59.651Z,49.10
2018-09-14T13:27:28.288Z,49.10
2018-09-14T13:29:56.933Z,48.10
2018-09-14T13:32:25.678Z,47.80
2018-09-14T13:34:54.338Z,45.70
2018-09-14T13:37:22.987Z,47.00
2018-09-14T13:39:51.654Z,46.80
2018-09-14T13:42:20.232Z,45.40
2018-09-14T13:44:49.358Z,46.80
2018-09-14T13:47:17.984Z,47.30
2018-09-14T13:49:46.647Z,47.70
2018-09-14T13:52:15.223Z,48.80
2018-09-14T13:54:43.830Z,47.00
2018-09-14T13:57:12.479Z,50.40
2018-09-14T13:59:41.123Z,46.60
2018-09-14T14:02:09.692Z,46.60
2018-09-14T14:04:38.316Z,46.50
2018-09-14T14:07:07.314Z,46.20
2018-09-14T14:09:35.970Z,46.10
2018-09-14T14:12:04.527Z,44.10
2018-09-14T14:14:33.159Z,44.20
2018-09-14T14:17:01.949Z,43.30
2018-09-14T14:19:30.476Z,44.20
2018-09-14T14:21:59.136Z,47.60
2018-09-14T14:24:28.040Z,50.60
2018-09-14T14:26:56.684Z,47.20
2018-09-14T14:29:25.310Z,43.30
2018-09-14T14:31:53.968Z,44.00
2018-09-14T14:34:22.548Z,48.30
2018-09-14T14:36:51.248Z,42.30
2018-09-14T14:39:19.906Z,42.60
2018-09-14T14:41:48.605Z,43.30
2018-09-14T14:44:17.263Z,41.90
2018-09-14T14:46:45.908Z,44.70
2018-09-14T14:49:14.582Z,44.00
2018-09-14T14:51:43.299Z,45.00
2018-09-14T14:54:11.908Z,42.90
2018-09-14T14:56:40.521Z,43.30
2018-09-14T14:59:09.323Z,46.60
2018-09-14T15:01:37.974Z,43.30
2018-09-14T15:04:06.607Z,44.10
2018-09-14T15:06:35.260Z,43.00
2018-09-14T15:09:04.007Z,45.10
2018-09-14T15:11:32.615Z,43.90
2018-09-14T15:14:01.233Z,45.00
2018-09-14T15:16:29.971Z,44.20
2018-09-14T15:18:58.704Z,44.30
2018-09-14T15:21:27.518Z,45.20
2018-09-14T15:23:56.255Z,44.50
2018-09-14T15:26:24.941Z,43.70
2018-09-14T15:28:53.599Z,44.20
2018-09-14T15:31:22.211Z,44.20
2018-09-14T15:33:50.882Z,44.80
2018-09-14T15:36:19.508Z,44.00
2018-09-14T15:38:48.151Z,45.80
2018-09-14T15:41:16.804Z,46.40
2018-09-14T15:43:45.533Z,45.50
2018-09-14T15:46:14.073Z,46.40
2018-09-14T15:48:42.671Z,46.80
2018-09-14T15:51:11.309Z,45.90
2018-09-14T15:53:39.875Z,45.60
2018-09-14T15:56:08.544Z,46.20
2018-09-14T15:58:37.160Z,46.50
2018-09-14T16:01:06.144Z,46.30
2018-09-14T16:03:34.735Z,46.40
2018-09-14T16:06:03.306Z,47.00
2018-09-14T16:08:32.099Z,47.00
2018-09-14T16:11:00.794Z,47.50
2018-09-14T16:13:29.512Z,48.00
2018-09-14T16:15:58.127Z,48.70
2018-09-14T16:18:26.770Z,48.40
2018-09-14T16:20:55.423Z,48.40
2018-09-14T16:23:24.028Z,49.40
2018-09-14T16:25:52.622Z,48.60
2018-09-14T16:28:21.263Z,49.80
2018-09-14T16:30:49.855Z,48.60
2018-09-14T16:33:18.487Z,48.60
2018-09-14T16:35:47.076Z,48.50
2018-09-14T16:38:16.671Z,46.80
2018-09-14T16:40:45.326Z,47.50
2018-09-14T16:43:13.996Z,49.70
2018-09-14T16:45:42.651Z,48.70
2018-09-14T16:48:11.244Z,48.20
2018-09-14T16:50:39.871Z,48.10
2018-09-14T16:53:08.459Z,49.80
2018-09-14T16:55:37.051Z,49.60
2018-09-14T16:58:05.699Z,50.00
2018-09-14T17:00:34.371Z,50.30
2018-09-14T17:03:02.991Z,50.30
2018-09-14T17:05:31.605Z,51.00
2018-09-14T17:08:00.238Z,51.80
2018-09-14T17:10:28.856Z,51.60
2018-09-14T17:12:57.471Z,52.60
2018-09-14T17:15:26.102Z,53.10
2018-09-14T17:17:54.798Z,56.00
2018-09-14T17:20:23.456Z,53.00
2018-09-14T17:22:52.112Z,58.30
2018-09-14T17:25:20.751Z,57.00
2018-09-14T17:27:49.376Z,57.90
2018-09-14T17:30:17.995Z,57.40
2018-09-14T17:32:46.604Z,59.20
2018-09-14T17:35:15.251Z,61.50
2018-09-14T17:37:43.863Z,58.80
2018-09-14T17:40:12.474Z,62.20
2018-09-14T17:42:41.162Z,59.50
2018-09-14T17:45:10.008Z,60.10
2018-09-14T17:47:38.686Z,60.90
2018-09-14T17:50:07.633Z,59.80
2018-09-14T17:52:36.718Z,58.50
2018-09-14T17:55:05.475Z,60.70
2018-09-14T17:57:34.188Z,61.90
2018-09-14T18:00:02.795Z,63.80
2018-09-14T18:02:31.409Z,59.30
2018-09-14T18:05:00.055Z,61.90
2018-09-14T18:07:28.659Z,60.50
2018-09-14T18:09:57.356Z,58.60
2018-09-14T18:12:26.014Z,58.90
2018-09-14T18:14:54.655Z,59.40
2018-09-14T18:17:23.281Z,59.60
2018-09-14T18:19:51.927Z,59.50
2018-09-14T18:22:20.556Z,61.40
2018-09-14T18:24:49.143Z,61.60
2018-09-14T18:27:17.787Z,63.10
2018-09-14T18:29:46.419Z,63.90
2018-09-14T18:32:15.067Z,63.70
2018-09-14T18:34:43.730Z,62.60
2018-09-14T18:37:12.388Z,61.20
2018-09-14T18:39:41.067Z,64.20
2018-09-14T18:42:09.666Z,64.60
2018-09-14T18:44:38.260Z,67.10
2018-09-14T18:47:06.913Z,68.20
2018-09-14T18:49:35.593Z,63.60
2018-09-14T18:52:04.267Z,64.90
2018-09-14T18:54:32.864Z,67.10
2018-09-14T18:57:01.528Z,65.90
2018-09-14T18:59:30.132Z,64.40
2018-09-14T19:01:58.731Z,67.60
2018-09-14T19:04:27.377Z,65.40
2018-09-14T19:06:56.020Z,65.70
2018-09-14T19:09:24.672Z,67.30
2018-09-14T19:11:53.359Z,66.60
2018-09-14T19:14:21.996Z,65.30
2018-09-14T19:16:50.627Z,65.90
2018-09-14T19:19:19.280Z,67.00
2018-09-14T19:21:47.940Z,67.80
2018-09-14T19:24:16.601Z,66.80
2018-09-14T19:26:45.177Z,67.10
2018-09-14T19:29:13.812Z,67.60
2018-09-14T19:31:42.457Z,68.00
2018-09-14T19:34:11.111Z,66.00
2018-09-14T19:36:39.795Z,65.70
2018-09-14T19:39:10.232Z,65.70
2018-09-14T19:41:38.878Z,65.80
2018-09-14T19:44:07.511Z,67.20
2018-09-14T19:46:36.260Z,69.90
2018-09-14T19:49:05.006Z,69.00
2018-09-14T19:51:33.613Z,69.30
2018-09-14T19:54:02.188Z,68.40
2018-09-14T19:56:30.835Z,69.70
2018-09-14T19:58:59.505Z,68.10
2018-09-14T20:01:28.176Z,68.30
2018-09-14T20:03:56.769Z,68.20
2018-09-14T20:06:25.391Z,68.10
2018-09-14T20:08:54.032Z,67.30
2018-09-14T20:11:22.748Z,67.70
2018-09-14T20:13:51.406Z,67.80
2018-09-14T20:16:20.161Z,67.00
2018-09-14T20:18:49.294Z,67.10
2018-09-14T20:21:17.951Z,70.60
2018-09-14T20:23:46.547Z,68.70
2018-09-14T20:26:15.192Z,67.90
2018-09-14T20:28:43.818Z,67.50
2018-09-14T20:31:12.435Z,67.40
2018-09-14T20:33:41.063Z,67.90
2018-09-14T20:36:09.684Z,67.70
2018-09-14T20:38:38.296Z,69.40
2018-09-14T20:41:07.194Z,70.60
2018-09-14T20:43:35.820Z,69.70
2018-09-14T20:46:04.467Z,69.40
2018-09-14T20:48:33.155Z,69.90
2018-09-14T20:51:01.748Z,70.10
2018-09-14T20:53:30.356Z,71.30
2018-09-14T20:55:59.015Z,70.20
2018-09-14T20:58:27.656Z,70.70
2018-09-14T21:00:56.299Z,69.30
2018-09-14T21:03:24.943Z,69.50
2018-09-14T21:05:53.583Z,69.10
2018-09-14T21:08:22.280Z,68.80
2018-09-14T21:10:50.927Z,68.10
2018-09-14T21:13:20.320Z,68.80
2018-09-14T21:15:49.043Z,68.30
2018-09-14T21:18:18.352Z,68.10
2018-09-14T21:20:47.043Z,67.90
2018-09-14T21:23:15.599Z,68.30
2018-09-14T21:25:44.256Z,67.80
2018-09-14T21:28:12.922Z,68.20
2018-09-14T21:30:41.559Z,67.70
2018-09-14T21:33:10.192Z,67.70
2018-09-14T21:35:38.806Z,68.20
2018-09-14T21:38:07.450Z,67.70
2018-09-14T21:40:36.117Z,67.90
2018-09-14T21:43:04.746Z,68.20
2018-09-14T21:45:33.397Z,68.30
2018-09-14T21:48:02.072Z,68.40
2018-09-14T21:50:30.715Z,68.30
2018-09-14T21:52:59.380Z,68.20
2018-09-14T21:55:27.974Z,68.80
2018-09-14T21:57:56.558Z,68.60
2018-09-14T22:00:30.626Z,69.50
2018-09-14T22:02:59.243Z,70.50
2018-09-14T22:05:27.819Z,71.10
2018-09-14T22:07:56.470Z,70.50
2018-09-14T22:10:25.118Z,71.10
2018-09-14T22:12:53.727Z,71.10
2018-09-14T22:15:22.309Z,70.10
2018-09-14T22:17:51.192Z,70.50
2018-09-14T22:20:19.811Z,70.70
2018-09-14T22:22:48.378Z,70.00
2018-09-14T22:25:17.023Z,71.20
2018-09-14T22:27:45.625Z,70.60
2018-09-14T22:30:14.207Z,70.50
2018-09-14T22:32:43.202Z,71.50
2018-09-14T22:35:11.767Z,72.20
2018-09-14T22:37:40.449Z,71.80
2018-09-14T22:40:09.388Z,71.50
2018-09-14T22:42:37.995Z,72.50
2018-09-14T22:45:06.706Z,71.70
2018-09-14T22:47:35.321Z,71.60
2018-09-14T22:50:03.967Z,71.70
2018-09-14T22:52:32.604Z,72.30
2018-09-14T22:55:01.238Z,72.10
2018-09-14T22:57:29.946Z,72.80
2018-09-14T22:59:58.579Z,72.40
2018-09-14T23:02:27.257Z,73.20
2018-09-14T23:04:55.854Z,73.30
2018-09-14T23:07:24.439Z,72.90
2018-09-14T23:09:53.061Z,72.60
2018-09-14T23:12:21.685Z,73.30
2018-09-14T23:14:50.356Z,73.20
2018-09-14T23:17:18.941Z,73.40
2018-09-14T23:19:47.621Z,73.10
2018-09-14T23:22:16.230Z,72.70
2018-09-14T23:24:44.875Z,73.10
2018-09-14T23:27:13.462Z,73.60
2018-09-14T23:29:42.136Z,73.70
2018-09-14T23:32:10.703Z,75.40
2018-09-14T23:34:39.360Z,74.40
2018-09-14T23:37:07.975Z,76.00
2018-09-14T23:39:36.595Z,76.30
2018-09-14T23:42:05.274Z,76.10
2018-09-14T23:44:33.916Z,75.90
2018-09-14T23:47:02.531Z,75.80
2018-09-14T23:49:31.255Z,76.20
2018-09-14T23:51:59.887Z,77.60
2018-09-14T23:54:28.898Z,76.40
2018-09-14T23:56:57.492Z,77.60
2018-09-14T23:59:26.158Z,77.60
